Time;durP1;ratioP1;P1;durP2;ratioP2;P2;SDS_P1;SDS_P2;PMS_P1;PMS_P2;Temp;Humidity;BMP_temperature;BMP_pressure;BME280_temperature;BME280_humidity;BME280_pressure;Samples;Min_cycle;Max_cycle;Signal;HPM_P1;HPM_P2
2023/04/26 07:01:41;;;;;;;0.30;0.30;;;10.10;99.90;14.60;101870.00;;;;6273846;22;1529996;-70
2023/04/26 07:04:20;;;;;;;0.10;0.10;;;10.50;99.90;15.30;101855.00;;;;6290059;22;20168;-69
2023/04/26 07:07:09;;;;;;;0.10;0.10;;;11.60;99.90;14.20;101886.00;;;;6288114;22;20156;-69
2023/04/26 07:10:07;;;;;;;1.80;1.27;;;11.20;99.90;13.40;101903.00;;;;6340341;22;20150;-70
2023/04/26 07:12:58;;;;;;;0.10;0.10;;;10.50;99.90;15.70;101859.00;;;;6313328;22;20151;-69
2023/04/26 07:16:02;;;;;;;0.97;0.97;;;11.00;99.90;16.00;101857.00;;;;6287551;22;20152;-69
2023/04/26 07:19:09;;;;;;;0.30;0.30;;;12.10;99.90;12.20;101932.00;;;;6305878;22;20169;-69
2023/04/26 07:21:47;;;;;;;0.20;0.20;;;10.70;99.90;11.80;101862.00;;;;6310150;22;20541;-69
2023/04/26 07:24:26;;;;;;;0.10;0.10;;;9.60;99.90;13.60;101905.00;;;;6313393;22;20147;-69
2023/04/26 07:27:30;;;;;;;0.10;0.10;;;9.50;99.90;15.00;101875.00;;;;6312862;22;20561;-69
2023/04/26 07:30:34;;;;;;;0.47;0.47;;;10.30;99.90;14.80;101814.00;;;;6305733;22;20492;-69
2023/04/26 07:33:29;;;;;;;0.10;0.10;;;11.30;99.90;13.10;101899.00;;;;6306654;22;20164;-70
2023/04/26 07:36:21;;;;;;;0.10;0.10;;;10.40;99.90;14.40;101888.00;;;;6323733;22;20160;-69
2023/04/26 07:39:16;;;;;;;0.10;0.10;;;10.50;99.90;15.20;101859.00;;;;6292788;22;20215;-70
2023/04/26 07:42:11;;;;;;;0.30;0.30;;;11.30;99.90;12.50;101925.00;;;;6291520;22;20173;-69
2023/04/26 07:44:49;;;;;;;1.10;1.10;;;10.50;99.90;14.50;101889.00;;;;6295642;22;20159;-69
2023/04/26 07:47:52;;;;;;;3.15;2.90;;;10.60;99.90;15.60;101851.00;;;;6311951;22;20380;-70
2023/04/26 07:50:48;;;;;;;11.37;10.83;;;11.30;99.90;15.80;101849.00;;;;6340281;22;20187;-69
2023/04/26 07:53:54;;;;;;;0.20;0.20;;;11.40;99.90;14.90;101826.00;;;;6340456;22;20266;-69
2023/04/26 07:57:00;;;;;;;0.10;0.10;;;11.60;99.90;15.90;101831.00;;;;6282743;22;20161;-69
2023/04/26 07:59:54;;;;;;;0.10;0.10;;;11.90;99.90;15.70;101832.00;;;;6334622;22;20199;-69
2023/04/26 08:03:00;;;;;;;0.30;0.30;;;11.70;99.90;16.10;101820.00;;;;6312848;22;20170;-69
2023/04/26 08:05:50;;;;;;;0.20;0.20;;;12.00;99.90;16.60;101807.00;;;;6305986;22;20170;-70
2023/04/26 08:08:44;;;;;;;0.10;0.10;;;12.60;99.90;15.30;101843.00;;;;6159249;23;20178;-69
2023/04/26 08:11:36;;;;;;;0.30;0.30;;;11.90;99.90;15.00;101856.00;;;;6313611;22;20144;-69
2023/04/26 08:14:25;;;;;;;0.10;0.10;;;11.60;99.90;16.10;101827.00;;;;6135106;23;20193;-70
2023/04/26 08:17:08;;;;;;;0.10;0.10;;;12.20;99.90;17.60;101751.00;;;;6339465;22;20209;-70
2023/04/26 08:19:57;;;;;;;0.20;0.20;;;13.00;99.90;15.50;101851.00;;;;6286795;22;20151;-70
2023/04/26 08:23:10;;;;;;;0.20;0.20;;;13.10;99.90;15.20;101835.00;;;;6340062;22;20175;-69
2023/04/26 08:26:40;;;;;;;0.20;0.20;;;12.90;99.90;17.70;101809.00;;;;6313144;22;20149;-69
2023/04/26 08:29:40;;;;;;;0.20;0.20;;;13.00;99.90;17.70;101803.00;;;;6339853;22;20177;-69
2023/04/26 08:32:35;;;;;;;0.20;0.20;;;13.90;99.90;19.60;101846.00;;;;6301773;22;20495;-70
2023/04/26 08:35:34;;;;;;;0.30;0.30;;;14.80;99.90;18.90;101854.00;;;;6295998;22;20159;-69
2023/04/26 08:38:26;;;;;;;0.10;0.10;;;14.90;99.90;19.50;101853.00;;;;6266296;22;20502;-70
2023/04/26 08:41:25;;;;;;;0.10;0.10;;;15.60;99.90;17.70;101860.00;;;;6158788;23;20251;-70
2023/04/26 08:44:17;;;;;;;17.53;1.20;;;14.20;99.90;16.30;101880.00;;;;6159443;23;20167;-70
2023/04/26 08:47:06;;;;;;;0.27;0.27;;;13.70;99.90;15.10;101833.00;;;;6307756;22;20477;-70
2023/04/26 08:50:28;;;;;;;0.10;0.10;;;13.60;99.90;17.70;101857.00;;;;6312031;22;20137;-70
2023/04/26 08:53:11;;;;;;;0.10;0.10;;;13.70;99.90;18.20;101870.00;;;;6183580;23;20167;-71
2023/04/26 08:55:59;;;;;;;0.10;0.10;;;14.80;99.90;19.60;101864.00;;;;6159292;23;20156;-69
2023/04/26 08:59:05;;;;;;;0.20;0.20;;;15.50;99.90;20.90;101876.00;;;;6157711;23;20575;-68
2023/04/26 09:01:56;;;;;;;0.10;0.10;;;16.40;99.90;20.70;101881.00;;;;6180036;23;20173;-69
2023/04/26 09:04:51;;;;;;;0.87;0.87;;;16.40;99.90;18.60;101886.00;;;;6153672;23;20199;-69
2023/04/26 09:07:43;;;;;;;0.10;0.10;;;16.30;99.90;17.90;101893.00;;;;6158547;23;20155;-70
2023/04/26 09:10:35;;;;;;;0.10;0.10;;;15.00;99.90;18.00;101900.00;;;;6174168;23;20169;-70
2023/04/26 09:13:31;;;;;;;0.17;0.17;;;14.70;99.90;19.20;101888.00;;;;6094771;23;20167;-70
2023/04/26 09:16:40;;;;;;;0.10;0.10;;;14.90;99.90;15.80;101915.00;;;;6183350;23;20606;-70
2023/04/26 09:19:36;;;;;;;1.07;1.07;;;13.90;99.90;17.60;101898.00;;;;6311158;22;20580;-71
2023/04/26 09:22:31;;;;;;;0.10;0.10;;;13.40;99.90;19.70;101886.00;;;;6295849;22;20178;-71
2023/04/26 09:25:36;;;;;;;0.20;0.20;;;14.90;99.90;16.10;101918.00;;;;6339283;22;20590;-71
2023/04/26 09:28:25;;;;;;;0.10;0.10;;;14.50;99.90;16.30;101906.00;;;;6279279;22;20156;-71
2023/04/26 09:31:38;;;;;;;0.23;0.23;;;13.40;99.90;17.80;101903.00;;;;6183182;23;20255;-71
2023/04/26 09:34:18;;;;;;;0.13;0.13;;;14.00;99.90;17.70;101897.00;;;;6295781;22;20137;-71
2023/04/26 09:37:16;;;;;;;0.10;0.10;;;13.90;99.90;19.30;101886.00;;;;6309450;22;20158;-70
2023/04/26 09:40:20;;;;;;;0.63;0.63;;;14.80;99.90;18.50;101894.00;;;;6311137;22;20234;-70
2023/04/26 09:43:13;;;;;;;0.93;0.80;;;14.70;99.90;18.50;101893.00;;;;6311407;22;20170;-70
2023/04/26 09:46:08;;;;;;;1.00;0.90;;;14.80;99.90;14.40;101916.00;;;;6183087;23;20163;-70
2023/04/26 09:49:03;;;;;;;0.13;0.13;;;13.30;99.90;16.90;101895.00;;;;6182719;23;20149;-71
2023/04/26 09:52:08;;;;;;;0.23;0.23;;;13.20;99.90;17.30;101906.00;;;;6266933;22;20171;-71
2023/04/26 09:55:31;;;;;;;2.77;1.80;;;13.40;99.90;18.00;101902.00;;;;6339486;22;20143;-70
2023/04/26 09:58:31;;;;;;;7.43;1.63;;;13.90;99.90;16.00;101911.00;;;;6311786;22;20529;-70
2023/04/26 10:01:28;;;;;;;0.10;0.10;;;13.10;99.90;14.80;101916.00;;;;6311707;22;20205;-70
2023/04/26 10:04:23;;;;;;;0.43;0.43;;;11.80;99.90;14.10;101929.00;;;;6338830;22;20163;-70
2023/04/26 10:07:19;;;;;;;0.20;0.20;;;11.50;99.90;14.30;101922.00;;;;6311462;22;20153;-70
2023/04/26 10:10:10;;;;;;;0.10;0.10;;;11.30;99.90;15.00;101918.00;;;;6285102;22;20159;-70
2023/04/26 10:12:50;;;;;;;0.40;0.40;;;11.80;99.90;14.70;101924.00;;;;6133389;23;20193;-70
2023/04/26 10:15:40;;;;;;;0.20;0.20;;;11.40;99.90;16.00;101913.00;;;;6306572;22;20165;-70
2023/04/26 10:18:38;;;;;;;0.10;0.10;;;12.40;99.90;16.90;101899.00;;;;6310669;22;20241;-70
2023/04/26 10:34:19;;;;;;;0.23;0.23;;;11.00;99.90;14.70;101893.00;;;;5090419;28;20565;-68
2023/04/26 10:37:56;;;;;;;3.40;1.50;;;11.50;99.90;15.90;101878.00;;;;5069231;28;20189;-68
2023/04/26 10:40:44;;;;;;;0.33;0.33;;;12.20;99.90;15.70;101830.00;;;;5065570;28;20261;-68
2023/04/26 10:43:21;;;;;;;1.07;1.03;;;12.50;99.90;16.10;101873.00;;;;5068874;28;20186;-68
2023/04/26 10:46:43;;;;;;;0.77;0.77;;;12.60;99.90;17.70;101862.00;;;;5069923;28;20207;-68
2023/04/26 10:49:45;;;;;;;2.43;0.87;;;13.30;99.90;16.70;101852.00;;;;5068963;28;20205;-68
2023/04/26 10:53:00;;;;;;;0.20;0.20;;;13.10;99.90;17.20;101850.00;;;;5065648;28;20237;-68
2023/04/26 10:55:49;;;;;;;0.10;0.10;;;13.20;99.90;18.40;101850.00;;;;5067292;28;20279;-68
2023/04/26 10:59:44;;;;;;;5.40;0.83;;;14.00;99.90;14.10;101880.00;;;;5068370;28;20270;-68
2023/04/26 11:02:16;;;;;;;0.27;0.27;;;13.50;99.90;16.30;101853.00;;;;4956736;28;20214;-68
2023/04/26 11:05:37;;;;;;;0.50;0.50;;;12.80;99.90;14.80;101872.00;;;;5061979;28;20207;-68
2023/04/26 11:08:31;;;;;;;0.67;0.67;;;12.60;99.90;16.40;101846.00;;;;5062555;28;20213;-68
2023/04/26 11:11:21;;;;;;;0.77;0.60;;;13.00;99.90;17.30;101834.00;;;;5059346;28;20201;-68
2023/04/26 11:14:16;;;;;;;0.20;0.20;;;13.50;99.90;17.10;101840.00;;;;5068373;28;20199;-68
2023/04/26 11:17:08;;;;;;;1.20;0.97;;;13.90;99.90;17.70;101825.00;;;;5047704;28;20218;-68
2023/04/26 11:19:59;;;;;;;1.10;0.83;;;14.00;99.90;19.10;101777.00;;;;5009644;28;20690;-68
2023/04/26 11:22:56;;;;;;;0.53;0.53;;;14.80;99.90;20.10;101815.00;;;;4998789;28;20346;-68
2023/04/26 11:25:35;;;;;;;0.40;0.40;;;15.40;99.90;19.00;101825.00;;;;5062920;28;20283;-69
2023/04/26 11:28:44;;;;;;;0.37;0.37;;;15.70;99.90;18.90;101819.00;;;;5068409;28;20614;-68
2023/04/26 11:31:31;;;;;;;0.40;0.40;;;15.10;99.90;17.10;101829.00;;;;5060164;28;20277;-69
2023/04/26 11:34:46;;;;;;;1.63;1.53;;;14.50;99.90;17.10;101820.00;;;;5081070;28;20183;-68
2023/04/26 11:37:38;;;;;;;0.10;0.10;;;13.40;99.90;18.40;101816.00;;;;5067289;28;20660;-68
2023/04/26 11:40:27;;;;;;;0.37;0.37;;;14.20;99.90;15.70;101828.00;;;;5038507;28;20287;-69
2023/04/26 11:43:32;;;;;;;0.83;0.73;;;13.30;99.90;15.70;101838.00;;;;5064694;28;20190;-68
2023/04/26 11:46:21;;;;;;;0.83;0.83;;;13.20;99.90;17.60;101818.00;;;;5047890;28;20232;-68
2023/04/26 11:49:09;;;;;;;6.70;3.23;;;13.60;99.90;16.30;101838.00;;;;5048909;28;20184;-68
2023/04/26 11:51:59;;;;;;;3.80;3.57;;;13.80;99.90;15.40;101829.00;;;;5054547;28;20205;-68
2023/04/26 11:55:02;;;;;;;0.60;0.60;;;13.20;99.90;16.80;101819.00;;;;5008592;28;20200;-68
2023/04/26 11:57:49;;;;;;;0.10;0.10;;;13.40;99.90;17.50;101829.00;;;;4997412;28;20191;-68
2023/04/26 12:00:55;;;;;;;0.13;0.13;;;13.50;99.90;18.30;101805.00;;;;5046803;28;20511;-68
2023/04/26 12:03:28;;;;;;;0.90;0.63;;;14.10;99.90;18.40;101812.00;;;;5052427;28;20187;-68
2023/04/26 12:06:32;;;;;;;14.50;1.20;;;14.80;99.90;18.90;101816.00;;;;5053816;28;20717;-68
2023/04/26 12:09:28;;;;;;;0.70;0.70;;;15.30;99.90;18.70;101821.00;;;;5050218;28;20203;-68
2023/04/26 12:12:20;;;;;;;0.57;0.57;;;15.20;99.90;18.60;101777.00;;;;5045647;28;20224;-68
2023/04/26 12:15:18;;;;;;;0.20;0.20;;;15.40;99.90;18.30;101823.00;;;;5055013;28;20184;-68
2023/04/26 12:18:08;;;;;;;2.43;1.70;;;15.40;99.90;15.40;101851.00;;;;5067384;28;20181;-68
2023/04/26 12:20:42;;;;;;;0.43;0.43;;;13.80;99.90;16.70;101842.00;;;;5056903;28;20188;-68
2023/04/26 12:23:38;;;;;;;0.10;0.10;;;13.40;99.90;17.40;101844.00;;;;5053642;28;20527;-68
2023/04/26 12:26:20;;;;;;;0.60;0.60;;;13.50;99.90;15.70;101842.00;;;;5055105;28;20188;-68
2023/04/26 12:29:32;;;;;;;0.27;0.27;;;13.50;99.90;17.50;101842.00;;;;5043056;28;20645;-68
2023/04/26 12:32:38;;;;;;;0.40;0.40;;;13.50;99.90;18.20;101841.00;;;;5052997;28;20583;-68
2023/04/26 12:35:27;;;;;;;0.13;0.13;;;14.60;99.90;18.30;101823.00;;;;5042300;28;20185;-68
2023/04/26 12:38:14;;;;;;;4.90;1.40;;;15.00;99.90;15.90;101844.00;;;;5039378;28;20186;-68
2023/04/26 12:41:21;;;;;;;0.50;0.50;;;14.60;99.90;18.20;101837.00;;;;5053761;28;20193;-68
2023/04/26 12:44:08;;;;;;;0.87;0.87;;;14.10;99.90;18.20;101839.00;;;;5035951;28;20284;-68
2023/04/26 12:46:55;;;;;;;0.73;0.60;;;14.30;99.90;16.90;101840.00;;;;5042952;28;20291;-68
2023/04/26 12:49:32;;;;;;;1.10;1.00;;;14.30;99.90;17.20;101830.00;;;;5037753;28;20600;-68
2023/04/26 12:52:24;;;;;;;0.30;0.30;;;14.10;99.90;17.90;101818.00;;;;5053486;28;20227;-68
2023/04/26 12:55:14;;;;;;;0.30;0.30;;;14.40;99.90;15.80;101846.00;;;;5039799;28;20616;-68
2023/04/26 12:58:03;;;;;;;0.10;0.10;;;13.60;99.90;17.00;101833.00;;;;4995803;28;20207;-68
2023/04/26 13:00:40;;;;;;;0.40;0.40;;;13.70;99.90;17.70;101828.00;;;;4996481;28;20247;-68
2023/04/26 13:03:27;;;;;;;0.60;0.60;;;13.90;99.90;17.70;101818.00;;;;5012430;28;20199;-68
2023/04/26 13:06:13;;;;;;;0.20;0.20;;;14.20;99.90;18.60;101814.00;;;;5012201;28;20184;-68
2023/04/26 13:08:53;;;;;;;1.50;1.40;;;14.40;99.90;18.50;101798.00;;;;5011998;28;20250;-68
2023/04/26 13:11:48;;;;;;;1.70;0.70;;;14.70;99.90;18.60;101815.00;;;;5011668;28;20204;-68
2023/04/26 13:14:25;;;;;;;0.50;0.50;;;14.80;99.90;18.40;101813.00;;;;4995850;28;20232;-68
2023/04/26 13:17:17;;;;;;;0.10;0.10;;;14.90;99.90;17.30;101812.00;;;;4993155;28;20717;-68
2023/04/26 13:20:15;;;;;;;0.10;0.10;;;14.30;99.90;19.60;101809.00;;;;4953718;29;20293;-68
2023/04/26 13:23:04;;;;;;;0.30;0.30;;;14.90;99.90;19.70;101807.00;;;;4946357;28;20657;-68
2023/04/26 13:25:59;;;;;;;0.53;0.53;;;15.30;99.90;19.50;101796.00;;;;5031973;28;20255;-68
2023/04/26 13:29:03;;;;;;;0.17;0.17;;;15.70;99.90;19.60;101789.00;;;;5046194;28;20194;-68
2023/04/26 13:32:01;;;;;;;3.00;2.73;;;15.30;99.90;16.00;101816.00;;;;5065038;28;20224;-68
2023/04/26 13:34:51;;;;;;;0.60;0.60;;;14.40;99.90;16.00;101810.00;;;;5043919;28;20229;-68
2023/04/26 13:37:58;;;;;;;2.37;2.23;;;13.40;99.90;16.60;101815.00;;;;4972604;28;20256;-68
2023/04/26 13:40:59;;;;;;;0.30;0.30;;;13.30;99.90;15.90;101821.00;;;;5052743;28;20282;-68
2023/04/26 13:43:48;;;;;;;0.40;0.40;;;12.90;99.90;16.60;101826.00;;;;5046050;28;20198;-68
2023/04/26 13:46:44;;;;;;;1.80;1.70;;;13.50;99.90;16.80;101822.00;;;;4991953;28;20277;-68
2023/04/26 13:49:40;;;;;;;1.47;1.37;;;13.70;99.90;16.70;101829.00;;;;4983112;28;20231;-68
2023/04/26 13:52:35;;;;;;;3.07;2.77;;;13.60;99.90;14.70;101841.00;;;;5048061;28;20222;-68
2023/04/26 13:55:25;;;;;;;0.37;0.37;;;13.30;99.90;17.10;101813.00;;;;5051501;28;20664;-68
2023/04/26 13:58:17;;;;;;;1.70;1.70;;;13.30;99.90;17.30;101826.00;;;;5022813;28;20195;-68
2023/04/26 14:01:08;;;;;;;27.17;1.70;;;13.70;99.90;16.70;101766.00;;;;5044496;28;20202;-68
2023/04/26 14:03:57;;;;;;;1.90;1.60;;;13.70;99.90;15.20;101836.00;;;;4959218;28;20625;-68
2023/04/26 14:06:46;;;;;;;0.20;0.20;;;12.90;99.90;16.40;101829.00;;;;4944586;28;20193;-68
2023/04/26 14:09:27;;;;;;;0.17;0.17;;;13.10;99.90;17.50;101822.00;;;;4976541;28;20233;-68
2023/04/26 14:12:14;;;;;;;0.63;0.63;;;13.50;99.90;15.20;101838.00;;;;4968800;28;20688;-68
2023/04/26 14:15:04;;;;;;;2.10;2.00;;;13.10;99.90;15.60;101832.00;;;;4979439;28;20213;-68
2023/04/26 14:17:40;;;;;;;0.10;0.10;;;13.00;99.90;16.40;101815.00;;;;4917388;29;20671;-68
2023/04/26 14:20:28;;;;;;;0.30;0.30;;;13.00;99.90;17.70;101810.00;;;;4967876;28;20198;-68
2023/04/26 14:23:14;;;;;;;0.37;0.37;;;13.50;99.90;15.90;101747.00;;;;4960351;28;20290;-68
2023/04/26 14:25:58;;;;;;;0.53;0.53;;;13.00;99.90;16.90;101812.00;;;;4983952;28;20216;-68
2023/04/26 14:28:47;;;;;;;0.20;0.20;;;13.10;99.90;18.10;101803.00;;;;4969329;28;20721;-68
2023/04/26 14:31:42;;;;;;;1.17;1.17;;;13.80;99.90;15.00;101760.00;;;;4969105;28;20196;-68
2023/04/26 14:34:37;;;;;;;1.50;1.40;;;13.20;99.90;16.10;101806.00;;;;4991065;28;20199;-68
2023/04/26 14:37:31;;;;;;;0.30;0.30;;;13.00;99.90;17.40;101745.00;;;;4961142;28;20528;-68
2023/04/26 14:40:20;;;;;;;0.60;0.60;;;13.40;99.90;17.90;101787.00;;;;4982343;28;20282;-68
2023/04/26 14:43:24;;;;;;;0.93;0.40;;;14.00;99.90;16.60;101794.00;;;;5049361;28;20187;-68
2023/04/26 14:46:16;;;;;;;4.60;1.70;;;13.70;99.90;16.10;101759.00;;;;5051943;28;20529;-68
2023/04/26 14:49:02;;;;;;;0.10;0.10;;;13.40;99.90;17.50;101789.00;;;;5050401;28;20586;-68
2023/04/26 14:51:48;;;;;;;0.20;0.20;;;13.70;99.90;16.50;101798.00;;;;5047139;28;20300;-68
2023/04/26 14:54:22;;;;;;;1.70;1.40;;;13.50;99.90;16.30;101792.00;;;;5047616;28;20252;-68
2023/04/26 14:56:59;;;;;;;1.23;1.23;;;13.30;99.90;18.00;101777.00;;;;5046538;28;20206;-68
2023/04/26 14:59:48;;;;;;;1.57;1.47;;;13.70;99.90;17.20;101784.00;;;;5051351;28;20541;-68
2023/04/26 15:02:22;;;;;;;1.83;1.63;;;13.80;99.90;16.70;101782.00;;;;5050977;28;20199;-68
2023/04/26 15:04:55;;;;;;;1.43;1.43;;;13.60;99.90;17.40;101777.00;;;;5051539;28;20197;-68
2023/04/26 15:07:36;;;;;;;0.73;0.73;;;13.90;99.90;17.90;101716.00;;;;5050173;28;20183;-68
2023/04/26 15:10:27;;;;;;;1.27;1.27;;;14.00;99.90;17.40;101778.00;;;;5051256;28;20194;-68
2023/04/26 15:13:12;;;;;;;0.67;0.67;;;13.90;99.90;18.00;101772.00;;;;5051091;28;20612;-67
2023/04/26 15:16:05;;;;;;;0.97;0.97;;;14.00;99.90;18.10;101752.00;;;;5051098;28;20187;-67
2023/04/26 15:18:54;;;;;;;0.70;0.70;;;14.40;99.90;18.40;101753.00;;;;5037132;28;20205;-67
2023/04/26 15:22:00;;;;;;;2.33;2.23;;;14.40;99.90;15.30;101757.00;;;;5038823;28;20230;-68
2023/04/26 15:24:49;;;;;;;0.47;0.47;;;13.60;99.90;16.10;101767.00;;;;5055074;28;20182;-68
2023/04/26 15:27:40;;;;;;;0.87;0.87;;;13.20;99.90;16.50;101768.00;;;;5040446;28;20189;-67
2023/04/26 15:30:10;;;;;;;0.50;0.50;;;13.20;99.90;17.50;101773.00;;;;5024280;28;20637;-67
2023/04/26 15:33:02;;;;;;;1.25;1.15;;;13.70;99.90;17.70;101765.00;;;;5037476;28;20886;-68
2023/04/26 15:35:40;;;;;;;3.57;2.73;;;14.30;99.90;16.00;101769.00;;;;5017905;28;20190;-68
2023/04/26 15:38:09;;;;;;;0.70;0.70;;;13.80;99.90;16.90;101777.00;;;;5054679;28;20194;-67
2023/04/26 15:40:49;;;;;;;1.10;1.00;;;13.50;99.90;17.70;101770.00;;;;5055046;28;20277;-68
2023/04/26 15:43:47;;;;;;;1.37;1.27;;;13.90;99.90;15.50;101797.00;;;;5047342;28;20218;-67
2023/04/26 15:46:48;;;;;;;1.17;1.17;;;13.50;99.90;15.00;101801.00;;;;5046410;28;20198;-68
2023/04/26 15:49:54;;;;;;;1.70;1.60;;;12.90;99.90;16.70;101777.00;;;;5047468;28;20192;-67
2023/04/26 15:52:46;;;;;;;0.80;0.80;;;13.00;99.90;16.90;101777.00;;;;5043340;28;20224;-67
2023/04/26 15:55:43;;;;;;;2.70;2.10;;;13.50;99.90;16.90;101749.00;;;;5032212;28;20193;-67
2023/04/26 15:58:27;;;;;;;0.80;0.80;;;13.50;99.90;17.80;101763.00;;;;5042468;28;20388;-67
2023/04/26 16:01:17;;;;;;;0.13;0.13;;;13.80;99.90;17.70;101762.00;;;;5032838;28;20188;-67
2023/04/26 16:04:11;;;;;;;2.73;1.30;;;13.90;99.90;16.70;101761.00;;;;5052972;28;20269;-67
2023/04/26 16:07:17;;;;;;;0.30;0.30;;;13.70;99.90;17.30;101765.00;;;;5049629;28;20265;-67
2023/04/26 16:10:03;;;;;;;1.07;1.07;;;13.60;99.90;16.60;101762.00;;;;5050316;28;20197;-67
2023/04/26 16:13:09;;;;;;;0.93;0.93;;;13.60;99.90;16.40;101765.00;;;;5055201;28;20576;-67
2023/04/26 16:15:56;;;;;;;0.10;0.10;;;13.60;99.90;16.10;101775.00;;;;5046302;28;20237;-67
2023/04/26 16:19:03;;;;;;;1.40;1.40;;;13.20;99.90;15.50;101791.00;;;;4996653;28;20214;-67
2023/04/26 16:22:14;;;;;;;0.27;0.27;;;12.90;99.90;15.70;101776.00;;;;5011403;28;20287;-67
2023/04/26 16:25:05;;;;;;;0.73;0.73;;;12.80;99.90;15.80;101779.00;;;;5051020;28;20656;-67
2023/04/26 16:28:12;;;;;;;1.47;1.37;;;12.80;99.90;15.60;101787.00;;;;5045342;28;20212;-67
2023/04/26 16:31:01;;;;;;;1.20;1.20;;;12.90;99.90;15.40;101786.00;;;;5048495;28;20197;-67
2023/04/26 16:33:55;;;;;;;0.60;0.60;;;12.70;99.90;16.40;101782.00;;;;5053460;28;20209;-67
2023/04/26 16:36:44;;;;;;;0.40;0.40;;;12.90;99.90;16.90;101775.00;;;;5041116;28;20579;-67
2023/04/26 16:39:34;;;;;;;1.27;1.17;;;13.10;99.90;15.20;101782.00;;;;4996585;28;20239;-67
2023/04/26 16:42:44;;;;;;;1.40;1.23;;;12.80;99.90;15.90;101782.00;;;;4993230;28;20254;-68
2023/04/26 16:45:20;;;;;;;1.20;0.93;;;12.70;99.90;15.50;101758.00;;;;5041351;28;20218;-67
2023/04/26 16:48:09;;;;;;;0.70;0.60;;;12.70;99.90;15.90;101768.00;;;;5052859;28;20209;-67
2023/04/26 16:50:57;;;;;;;0.77;0.77;;;12.80;99.90;16.60;101769.00;;;;5041278;28;20209;-67
2023/04/26 16:53:48;;;;;;;1.87;1.77;;;13.00;99.90;15.10;101784.00;;;;5041264;28;20251;-68
2023/04/26 16:56:36;;;;;;;0.53;0.53;;;12.70;99.90;15.10;101777.00;;;;5052711;28;20656;-67
2023/04/26 16:59:05;;;;;;;0.60;0.60;;;12.40;99.90;14.80;101787.00;;;;5025192;28;20220;-68
2023/04/26 17:02:00;;;;;;;0.10;0.10;;;12.20;99.90;15.60;101779.00;;;;5052440;28;20639;-67
2023/04/26 17:04:56;;;;;;;0.60;0.60;;;12.30;99.90;16.60;101782.00;;;;5053410;28;20185;-68
2023/04/26 17:07:57;;;;;;;1.73;1.63;;;12.70;99.90;15.80;101780.00;;;;5046927;28;20199;-69
2023/04/26 17:10:53;;;;;;;0.30;0.30;;;12.90;99.90;15.80;101789.00;;;;5051973;28;20207;-69
2023/04/26 17:13:32;;;;;;;1.00;1.00;;;12.80;99.90;15.50;101779.00;;;;5035830;28;20212;-69
2023/04/26 17:16:23;;;;;;;1.87;1.70;;;12.70;99.90;15.10;101740.00;;;;5036572;28;20208;-69
2023/04/26 17:19:11;;;;;;;0.43;0.43;;;12.50;99.90;15.00;101812.00;;;;4995863;28;20216;-69
2023/04/26 17:22:18;;;;;;;2.17;0.93;;;12.30;99.90;14.70;101815.00;;;;4976093;28;20570;-69
2023/04/26 17:25:07;;;;;;;0.50;0.50;;;12.10;99.90;15.10;101801.00;;;;5028259;28;20298;-69
2023/04/26 17:27:57;;;;;;;1.23;0.77;;;12.00;99.90;15.40;101807.00;;;;5039990;28;20201;-68
2023/04/26 17:31:06;;;;;;;0.40;0.40;;;12.10;99.90;15.20;101812.00;;;;5012106;28;20208;-68
2023/04/26 17:33:55;;;;;;;0.27;0.27;;;12.00;99.90;15.00;101758.00;;;;5001616;28;20319;-69
2023/04/26 17:36:51;;;;;;;0.10;0.10;;;12.10;99.90;16.00;101810.00;;;;5034286;28;20561;-69
2023/04/26 17:39:47;;;;;;;0.10;0.10;;;12.20;99.90;16.30;101800.00;;;;5024691;28;20242;-69
2023/04/26 17:42:36;;;;;;;1.90;1.07;;;12.60;99.90;15.40;101821.00;;;;5048345;28;20198;-69
2023/04/26 17:45:33;;;;;;;0.87;0.87;;;12.50;99.90;15.30;101813.00;;;;5052879;28;20233;-69
2023/04/26 17:48:19;;;;;;;0.93;0.93;;;12.20;99.90;15.00;101825.00;;;;5048477;28;20553;-69
2023/04/26 17:50:56;;;;;;;0.57;0.57;;;12.00;99.90;16.60;101820.00;;;;5053722;28;20272;-69
2023/04/26 17:53:43;;;;;;;0.70;0.70;;;12.40;99.90;15.30;101830.00;;;;5053033;28;20691;-68
2023/04/26 17:56:29;;;;;;;2.33;2.13;;;12.40;99.90;15.10;101823.00;;;;5052172;28;20578;-69
2023/04/26 17:59:36;;;;;;;1.30;0.93;;;12.00;99.90;15.10;101832.00;;;;5050098;28;20679;-69
2023/04/26 18:02:30;;;;;;;1.70;1.20;;;11.90;99.90;13.90;101838.00;;;;5044229;28;20198;-68
2023/04/26 18:05:37;;;;;;;0.10;0.10;;;11.60;99.90;15.00;101840.00;;;;5038205;28;20190;-69
2023/04/26 18:08:43;;;;;;;0.10;0.10;;;11.60;99.90;15.90;101838.00;;;;5032721;28;20280;-69
2023/04/26 18:11:26;;;;;;;0.20;0.20;;;12.00;99.90;14.60;101838.00;;;;5052214;28;20193;-69
2023/04/26 18:14:16;;;;;;;1.30;0.50;;;11.80;99.90;14.30;101843.00;;;;5040357;28;20261;-69
2023/04/26 18:17:04;;;;;;;0.40;0.40;;;11.60;99.90;14.00;101800.00;;;;4994206;28;20200;-69
2023/04/26 18:19:59;;;;;;;0.20;0.20;;;11.50;99.90;14.30;101861.00;;;;4980463;28;20276;-68
2023/04/26 18:22:48;;;;;;;0.47;0.47;;;11.40;99.90;15.00;101857.00;;;;5042966;28;20213;-68
2023/04/26 18:25:55;;;;;;;0.40;0.40;;;11.40;99.90;16.10;101840.00;;;;5052429;28;20629;-68
2023/04/26 18:28:38;;;;;;;0.10;0.10;;;11.80;99.90;15.00;101804.00;;;;5043709;28;20206;-68
2023/04/26 18:31:27;;;;;;;1.50;0.37;;;11.90;99.90;15.10;101865.00;;;;5052616;28;20181;-69
2023/04/26 18:34:17;;;;;;;1.47;1.37;;;11.70;99.90;14.40;101864.00;;;;4991224;28;20205;-68
2023/04/26 18:37:12;;;;;;;0.13;0.13;;;11.30;99.90;15.10;101869.00;;;;5040027;28;20230;-68
2023/04/26 18:40:04;;;;;;;0.10;0.10;;;11.30;99.90;14.50;101862.00;;;;5052097;28;20285;-68
2023/04/26 18:43:02;;;;;;;1.77;1.20;;;11.20;99.90;14.90;101863.00;;;;5051137;28;20667;-69
2023/04/26 18:45:57;;;;;;;0.10;0.10;;;11.30;99.90;14.20;101865.00;;;;5045632;28;20189;-68
2023/04/26 18:48:49;;;;;;;0.20;0.20;;;11.10;99.90;14.20;101827.00;;;;5031378;28;20196;-68
2023/04/26 18:51:30;;;;;;;0.20;0.20;;;11.00;99.90;14.00;101861.00;;;;5045650;28;20190;-68
2023/04/26 18:54:22;;;;;;;0.10;0.10;;;10.80;99.90;14.80;101864.00;;;;5051973;28;20189;-68
2023/04/26 18:57:26;;;;;;;0.10;0.10;;;11.00;99.90;14.10;101874.00;;;;5047828;28;20681;-68
2023/04/26 19:00:21;;;;;;;0.10;0.10;;;10.80;99.90;14.80;101873.00;;;;5045363;28;20554;-68
2023/04/26 19:03:21;;;;;;;0.20;0.20;;;10.80;99.90;14.10;101878.00;;;;5037867;28;20196;-69
2023/04/26 19:06:21;;;;;;;0.20;0.20;;;10.60;99.90;13.60;101878.00;;;;5055137;28;20197;-68
2023/04/26 19:09:22;;;;;;;0.20;0.20;;;10.50;99.90;14.10;101882.00;;;;5050133;28;20210;-68
2023/04/26 19:12:34;;;;;;;0.43;0.43;;;10.50;99.90;14.40;101884.00;;;;5055707;28;20218;-68
2023/04/26 19:15:23;;;;;;;0.20;0.20;;;10.60;99.90;13.80;101883.00;;;;5039548;28;20307;-68
2023/04/26 19:18:24;;;;;;;0.27;0.27;;;10.60;99.90;13.30;101924.00;;;;5055339;28;20279;-68
2023/04/26 19:21:30;;;;;;;0.20;0.20;;;10.50;99.90;13.00;101932.00;;;;5044088;28;20205;-68
2023/04/26 19:24:28;;;;;;;0.13;0.13;;;10.10;99.90;13.40;101902.00;;;;5054656;28;20327;-69
2023/04/26 19:27:38;;;;;;;0.40;0.40;;;10.10;99.90;13.50;101913.00;;;;5037531;28;20368;-68
2023/04/26 19:30:30;;;;;;;1.70;1.70;;;10.20;99.90;13.90;101870.00;;;;4997412;28;20583;-68
2023/04/26 19:33:39;;;;;;;0.33;0.33;;;10.30;99.90;13.10;101928.00;;;;4998010;28;20214;-68
2023/04/26 19:36:39;;;;;;;0.53;0.53;;;10.10;99.90;13.20;101912.00;;;;5051096;28;20203;-68
2023/04/26 19:39:42;;;;;;;0.20;0.20;;;9.90;99.90;13.30;101918.00;;;;5049247;28;20625;-68
2023/04/26 19:42:45;;;;;;;0.20;0.20;;;9.80;99.90;13.00;101897.00;;;;5054967;28;20571;-68
2023/04/26 19:45:39;;;;;;;0.20;0.20;;;9.70;99.90;12.90;101908.00;;;;5049849;28;20183;-68
2023/04/26 19:48:38;;;;;;;0.20;0.20;;;9.70;99.90;14.10;101897.00;;;;5019131;28;20279;-69
2023/04/26 19:51:26;;;;;;;0.20;0.20;;;9.90;99.90;13.90;101902.00;;;;5048278;28;20213;-68
2023/04/26 19:53:55;;;;;;;0.20;0.20;;;10.00;99.90;14.10;101899.00;;;;5049916;28;20265;-68
2023/04/26 19:56:30;;;;;;;0.20;0.20;;;10.10;99.90;13.60;101900.00;;;;5053219;28;20243;-68